Time;durP1;ratioP1;P1;durP2;ratioP2;P2;SDS_P1;SDS_P2;PMS_P1;PMS_P2;Temp;Humidity;BMP_temperature;BMP_pressure;BME280_temperature;BME280_humidity;BME280_pressure;Samples;Min_cycle;Max_cycle;Signal;HPM_P1;HPM_P2
2021/05/07 00:00:55;;;;;;;8.10;6.75;;;;;;;8.23;93.09;98598.03;5095073;28;20553;-72
2021/05/07 00:03:22;;;;;;;9.88;7.97;;;;;;;8.12;94.70;98596.06;5095019;28;20694;-74
2021/05/07 00:05:54;;;;;;;9.88;8.48;;;;;;;8.05;95.21;98600.09;5095122;28;20342;-74
2021/05/07 00:08:20;;;;;;;8.55;7.47;;;;;;;7.98;96.24;98596.94;5095017;28;20211;-73
2021/05/07 00:10:47;;;;;;;10.10;7.80;;;;;;;8.05;96.79;98598.28;5095148;28;20651;-71
2021/05/07 00:13:13;;;;;;;9.40;7.80;;;;;;;7.97;97.38;98600.59;5094729;28;20215;-71
2021/05/07 00:15:39;;;;;;;9.05;8.15;;;;;;;7.96;97.90;98601.56;5095154;28;20279;-73
2021/05/07 00:18:06;;;;;;;10.45;8.40;;;;;;;7.94;97.84;98609.69;5094629;28;20192;-71
2021/05/07 00:20:32;;;;;;;11.10;8.95;;;;;;;7.92;98.72;98614.28;5094694;28;20282;-74
2021/05/07 00:22:58;;;;;;;9.05;7.38;;;;;;;7.98;98.23;98609.47;5094651;28;20586;-72
2021/05/07 00:25:24;;;;;;;11.00;8.80;;;;;;;7.89;98.44;98608.22;5094610;28;20204;-73
2021/05/07 00:28:00;;;;;;;8.80;7.97;;;;;;;8.02;98.86;98594.94;5094521;28;20664;-72
2021/05/07 00:30:27;;;;;;;10.30;8.52;;;;;;;7.93;99.59;98609.78;5094016;28;20311;-73
2021/05/07 00:32:53;;;;;;;10.35;8.02;;;;;;;7.99;99.27;98601.34;5095000;28;20245;-74
2021/05/07 00:35:20;;;;;;;9.82;8.05;;;;;;;8.05;98.99;98600.97;5094334;28;20554;-72
2021/05/07 00:37:46;;;;;;;9.60;8.13;;;;;;;8.00;99.62;98603.06;5094295;28;20181;-73
2021/05/07 00:40:14;;;;;;;8.13;7.32;;;;;;;8.08;98.96;98603.44;5094174;28;20311;-72
2021/05/07 00:42:40;;;;;;;9.02;6.80;;;;;;;8.12;98.64;98596.94;5094087;28;20235;-73
2021/05/07 00:45:08;;;;;;;7.65;6.60;;;;;;;8.07;98.20;98599.06;5093979;28;20286;-72
2021/05/07 00:47:37;;;;;;;9.48;6.90;;;;;;;7.99;99.16;98601.34;5094717;28;20189;-72
2021/05/07 00:50:04;;;;;;;7.50;6.38;;;;;;;8.02;98.43;98590.41;5093828;28;20200;-72
2021/05/07 00:52:34;;;;;;;7.20;6.50;;;;;;;7.98;97.86;98596.06;5093896;28;20188;-72
2021/05/07 00:55:01;;;;;;;9.57;6.57;;;;;;;8.05;97.93;98595.59;5094460;28;20187;-73
2021/05/07 00:57:28;;;;;;;8.98;6.60;;;;;;;8.15;97.16;98586.00;5094166;28;20385;-72
2021/05/07 00:59:54;;;;;;;6.93;6.22;;;;;;;8.11;96.88;98587.16;5094415;28;20540;-74
2021/05/07 01:02:20;;;;;;;7.18;6.47;;;;;;;7.97;96.57;98589.88;5093522;28;20216;-73
2021/05/07 01:04:46;;;;;;;6.95;6.18;;;;;;;7.99;96.35;98593.31;5094123;28;20281;-73
2021/05/07 01:07:12;;;;;;;7.45;6.38;;;;;;;7.96;96.13;98587.28;5093883;28;20662;-73
2021/05/07 01:09:39;;;;;;;8.48;6.55;;;;;;;8.00;96.53;98589.66;5093884;28;20196;-73
2021/05/07 01:12:07;;;;;;;6.63;5.93;;;;;;;8.07;97.00;98588.34;5093234;28;20187;-71
2021/05/07 01:14:33;;;;;;;6.05;5.43;;;;;;;8.02;95.86;98585.06;5093795;28;20262;-73
2021/05/07 01:16:59;;;;;;;6.53;5.93;;;;;;;7.99;96.43;98584.41;5093818;28;20697;-72
2021/05/07 01:19:27;;;;;;;6.15;5.57;;;;;;;7.93;96.60;98581.16;5093418;28;20665;-73
2021/05/07 01:21:54;;;;;;;6.85;5.97;;;;;;;8.00;96.28;98581.63;5092870;28;20188;-72
2021/05/07 01:24:21;;;;;;;6.00;5.40;;;;;;;7.93;97.11;98591.00;5093657;28;20238;-73
2021/05/07 01:26:47;;;;;;;6.68;5.38;;;;;;;8.16;96.48;98597.56;5092960;28;20196;-72
2021/05/07 01:29:14;;;;;;;5.95;5.35;;;;;;;8.18;95.53;98602.84;5093735;28;20642;-73
2021/05/07 01:31:44;;;;;;;7.13;5.30;;;;;;;7.95;96.41;98613.22;5093551;28;20237;-72
2021/05/07 01:34:10;;;;;;;6.45;5.85;;;;;;;8.00;96.33;98619.16;5093551;28;20529;-72
2021/05/07 01:36:37;;;;;;;7.38;6.18;;;;;;;8.09;96.01;98615.03;5092584;28;20196;-73
2021/05/07 01:39:04;;;;;;;6.68;5.93;;;;;;;8.04;95.95;98615.31;5093355;28;20222;-73
2021/05/07 01:41:31;;;;;;;5.70;5.20;;;;;;;7.99;95.76;98616.56;5092784;28;20232;-72
2021/05/07 01:43:57;;;;;;;6.00;5.50;;;;;;;8.03;96.11;98613.59;5073448;28;20251;-74
2021/05/07 01:46:23;;;;;;;8.90;5.68;;;;;;;8.01;95.72;98625.41;5093409;28;20188;-72
2021/05/07 01:48:50;;;;;;;6.03;5.13;;;;;;;8.05;96.21;98610.81;5093015;28;20637;-72
2021/05/07 01:51:16;;;;;;;5.03;4.63;;;;;;;8.06;95.75;98616.09;5093020;28;20601;-72
2021/05/07 01:53:42;;;;;;;6.05;5.50;;;;;;;7.98;96.28;98615.69;5092918;28;20306;-72
2021/05/07 01:56:09;;;;;;;6.63;5.90;;;;;;;8.01;95.76;98609.31;5092575;28;20206;-71
2021/05/07 01:58:35;;;;;;;5.80;5.20;;;;;;;7.85;96.56;98614.78;5092910;28;20671;-71
2021/05/07 02:01:01;;;;;;;6.90;6.20;;;;;;;7.92;96.26;98610.75;5092723;28;20614;-73
2021/05/07 02:03:27;;;;;;;6.35;5.75;;;;;;;7.93;96.60;98617.81;5091486;28;20207;-71
2021/05/07 02:05:53;;;;;;;6.90;6.00;;;;;;;7.96;97.43;98619.44;5092560;28;20176;-73
2021/05/07 02:08:20;;;;;;;6.65;6.05;;;;;;;7.99;95.85;98616.56;5092046;28;20192;-73
2021/05/07 02:10:46;;;;;;;8.65;7.53;;;;;;;7.88;95.89;98614.56;5092643;28;20199;-72
2021/05/07 02:13:13;;;;;;;7.90;6.75;;;;;;;7.71;97.43;98627.22;5092173;28;20244;-73
2021/05/07 02:15:39;;;;;;;7.50;6.75;;;;;;;7.68;97.75;98622.03;5092780;28;20203;-72
2021/05/07 02:18:07;;;;;;;7.90;7.10;;;;;;;7.77;97.67;98631.31;5092736;28;20673;-73
2021/05/07 02:20:34;;;;;;;9.00;7.22;;;;;;;7.77;97.50;98635.81;5092880;28;20613;-71
2021/05/07 02:23:00;;;;;;;7.57;6.50;;;;;;;7.79;97.70;98633.91;5092224;28;20203;-73
2021/05/07 02:25:28;;;;;;;7.93;7.03;;;;;;;7.84;96.77;98631.78;5092653;28;20226;-73
2021/05/07 02:27:57;;;;;;;6.90;6.20;;;;;;;7.74;97.33;98634.19;5092154;28;20279;-72
2021/05/07 02:30:26;;;;;;;9.88;6.80;;;;;;;7.64;97.65;98633.91;5092366;28;20184;-71
2021/05/07 02:32:52;;;;;;;8.27;6.85;;;;;;;7.60;98.35;98637.72;5092261;28;20245;-72
2021/05/07 02:35:18;;;;;;;9.02;7.53;;;;;;;7.64;98.09;98633.03;5092445;28;20209;-72
2021/05/07 02:37:45;;;;;;;8.40;6.78;;;;;;;7.76;98.01;98636.78;5091877;28;20191;-73
2021/05/07 02:40:12;;;;;;;7.65;6.95;;;;;;;7.78;97.39;98635.72;5091937;28;20567;-73
2021/05/07 02:42:38;;;;;;;6.97;6.28;;;;;;;7.98;95.95;98644.31;5092246;28;20195;-73
2021/05/07 02:45:07;;;;;;;8.95;7.05;;;;;;;7.81;96.24;98648.06;5091724;28;20306;-73
2021/05/07 02:47:35;;;;;;;7.35;6.63;;;;;;;7.78;96.06;98642.88;5091870;28;20192;-73
2021/05/07 02:50:02;;;;;;;9.10;7.57;;;;;;;7.84;95.81;98651.41;5091528;28;20245;-74
2021/05/07 02:52:28;;;;;;;7.60;6.53;;;;;;;7.67;95.68;98648.94;5091952;28;20614;-73
2021/05/07 02:54:55;;;;;;;9.00;6.65;;;;;;;7.66;95.69;98652.53;5091599;28;20283;-72
2021/05/07 02:57:21;;;;;;;7.88;7.07;;;;;;;7.71;96.03;98656.69;5092237;28;20271;-72
2021/05/07 02:59:47;;;;;;;7.22;6.50;;;;;;;7.77;96.01;98657.25;5092498;28;20246;-73
2021/05/07 03:02:13;;;;;;;7.38;6.68;;;;;;;7.68;96.44;98662.22;5091651;28;20206;-71
2021/05/07 03:04:40;;;;;;;9.13;7.47;;;;;;;7.70;95.91;98664.81;5092082;28;20223;-73
2021/05/07 03:07:06;;;;;;;8.40;7.05;;;;;;;7.82;95.92;98674.75;5091294;28;20194;-73
2021/05/07 03:09:32;;;;;;;8.32;6.95;;;;;;;7.85;95.98;98673.72;5092306;28;20290;-72
2021/05/07 03:11:59;;;;;;;7.93;6.90;;;;;;;7.88;96.08;98684.25;5091611;28;20199;-73
2021/05/07 03:14:25;;;;;;;9.45;7.63;;;;;;;7.84;95.56;98686.25;5093599;28;20990;-72
2021/05/07 03:16:52;;;;;;;9.65;7.75;;;;;;;7.86;94.48;98700.41;5096589;28;20198;-72
2021/05/07 03:19:19;;;;;;;9.40;8.50;;;;;;;7.81;95.75;98701.66;5095630;28;20973;-73
2021/05/07 03:21:46;;;;;;;10.13;8.00;;;;;;;7.82;94.68;98706.91;5095882;28;20228;-72
2021/05/07 03:24:13;;;;;;;10.57;8.30;;;;;;;7.78;96.21;98718.81;5095860;28;20220;-73
2021/05/07 03:26:39;;;;;;;9.27;8.30;;;;;;;7.79;93.05;98717.84;5096321;28;20930;-71
2021/05/07 03:29:06;;;;;;;8.93;7.68;;;;;;;7.82;92.23;98712.28;5095695;28;20188;-73
2021/05/07 03:31:34;;;;;;;8.27;7.32;;;;;;;7.82;92.20;98714.94;5095710;28;20204;-72
2021/05/07 03:34:00;;;;;;;9.38;8.38;;;;;;;7.80;88.86;98716.00;5095621;28;20249;-74
2021/05/07 03:36:26;;;;;;;7.78;6.97;;;;;;;7.67;88.25;98713.22;5095705;28;20199;-72
2021/05/07 03:38:53;;;;;;;9.35;8.23;;;;;;;7.56;87.82;98724.59;5095205;28;20282;-72
2021/05/07 03:41:19;;;;;;;8.48;7.65;;;;;;;7.59;87.87;98721.72;5094527;28;20264;-72
2021/05/07 03:43:45;;;;;;;8.15;7.35;;;;;;;7.59;87.60;98729.75;5094647;28;20660;-72
2021/05/07 03:46:11;;;;;;;12.52;8.00;;;;;;;7.66;87.23;98733.78;5095316;28;20204;-74
2021/05/07 03:48:37;;;;;;;7.68;6.82;;;;;;;7.58;87.68;98729.84;5095230;28;20212;-72
2021/05/07 03:51:04;;;;;;;11.40;8.38;;;;;;;7.56;87.62;98742.47;5095503;28;20631;-71
2021/05/07 03:53:30;;;;;;;12.10;8.48;;;;;;;7.54;87.50;98742.56;5095241;28;20232;-72
2021/05/07 03:55:57;;;;;;;10.50;8.45;;;;;;;7.39;88.22;98759.53;5095257;28;20545;-71
2021/05/07 03:58:23;;;;;;;9.15;8.00;;;;;;;7.38;87.96;98750.63;5094871;28;20198;-73
2021/05/07 04:00:49;;;;;;;9.40;8.23;;;;;;;7.34;89.12;98761.63;5094883;28;20303;-73
2021/05/07 04:03:16;;;;;;;9.93;7.45;;;;;;;7.28;88.86;98763.72;5094678;28;20280;-74
2021/05/07 04:05:44;;;;;;;9.13;7.28;;;;;;;7.37;88.13;98770.34;5095039;28;20211;-73
2021/05/07 04:08:14;;;;;;;8.65;7.75;;;;;;;7.27;88.48;98775.34;5095188;28;20200;-73
2021/05/07 04:10:42;;;;;;;8.93;7.90;;;;;;;7.13;89.63;98775.28;5095003;28;20621;-74
2021/05/07 04:15:53;;;;;;;8.65;7.78;;;;;;;7.19;90.33;98776.75;5095105;28;20190;-74
2021/05/07 04:18:19;;;;;;;13.15;10.13;;;;;;;7.34;90.18;98781.22;5094738;28;20648;-72
2021/05/07 04:20:46;;;;;;;12.60;9.65;;;;;;;7.17;91.18;98790.25;5095110;28;20204;-72
2021/05/07 04:23:12;;;;;;;11.23;9.27;;;;;;;7.21;91.25;98789.13;5094244;28;20212;-72
2021/05/07 04:25:38;;;;;;;11.50;9.57;;;;;;;7.17;91.55;98789.34;5093731;28;20300;-73
2021/05/07 04:28:04;;;;;;;15.25;9.50;;;;;;;7.10;92.25;98795.06;5094881;28;20225;-73
2021/05/07 04:30:32;;;;;;;10.65;9.30;;;;;;;7.03;92.52;98798.16;5094296;28;20271;-72
2021/05/07 04:32:58;;;;;;;10.60;8.70;;;;;;;7.01;93.05;98810.78;5094899;28;20273;-73
2021/05/07 04:35:24;;;;;;;12.57;10.15;;;;;;;7.10;92.81;98808.47;5094100;28;20180;-73
2021/05/07 04:37:50;;;;;;;11.10;9.20;;;;;;;7.06;93.21;98814.06;5094481;28;20245;-73
2021/05/07 04:40:16;;;;;;;15.63;10.10;;;;;;;6.96;93.91;98815.53;5093670;28;20223;-71
2021/05/07 04:42:42;;;;;;;10.63;9.43;;;;;;;7.04;93.13;98822.19;5094096;28;20270;-73
2021/05/07 04:45:10;;;;;;;14.50;10.10;;;;;;;7.04;93.78;98821.31;5094348;28;20204;-72
2021/05/07 04:47:37;;;;;;;14.55;10.40;;;;;;;7.05;92.27;98823.03;5093638;28;20287;-73
2021/05/07 04:50:04;;;;;;;13.23;10.48;;;;;;;7.12;91.70;98827.09;5093802;28;20190;-73
2021/05/07 04:52:30;;;;;;;10.30;9.20;;;;;;;7.04;90.93;98832.88;5093936;28;20280;-74
2021/05/07 04:54:57;;;;;;;13.63;9.70;;;;;;;7.05;91.00;98836.41;5093980;28;20267;-73
2021/05/07 04:57:23;;;;;;;13.80;9.93;;;;;;;6.96;92.15;98835.13;5093540;28;20191;-72
2021/05/07 04:59:49;;;;;;;10.35;9.05;;;;;;;6.92;91.46;98848.75;5093546;28;20188;-71
2021/05/07 05:02:15;;;;;;;12.48;9.35;;;;;;;6.83;91.97;98850.16;5094022;28;20196;-73
2021/05/07 05:04:43;;;;;;;12.52;9.05;;;;;;;6.76;91.81;98844.25;5093044;28;20215;-73
2021/05/07 05:07:09;;;;;;;11.85;9.40;;;;;;;6.79;91.38;98853.94;5093520;28;20188;-71
2021/05/07 05:09:35;;;;;;;14.32;9.98;;;;;;;6.80;91.12;98858.31;5093739;28;20598;-73
2021/05/07 05:12:01;;;;;;;11.32;8.00;;;;;;;6.83;90.31;98851.00;5093532;28;20555;-73
2021/05/07 05:14:27;;;;;;;13.70;9.00;;;;;;;6.99;88.84;98863.56;5093515;28;20300;-73
2021/05/07 05:16:53;;;;;;;11.15;8.63;;;;;;;7.19;87.57;98859.75;5093494;28;20190;-74
2021/05/07 05:19:19;;;;;;;13.07;9.10;;;;;;;7.30;85.45;98870.72;5093506;28;20271;-73
2021/05/07 05:21:46;;;;;;;13.05;9.48;;;;;;;7.48;85.22;98868.81;5093290;28;20275;-72
2021/05/07 05:24:12;;;;;;;11.07;8.57;;;;;;;7.65;84.13;98886.59;5093446;28;20208;-71
2021/05/07 05:26:38;;;;;;;12.98;9.20;;;;;;;7.29;84.11;98882.38;5093613;28;20176;-73
2021/05/07 05:29:09;;;;;;;10.90;8.85;;;;;;;7.21;84.92;98888.19;5093691;28;20550;-73
2021/05/07 05:31:35;;;;;;;11.68;9.93;;;;;;;6.97;84.95;98886.84;5093852;28;20184;-72
2021/05/07 05:34:02;;;;;;;13.15;9.50;;;;;;;7.14;84.88;98896.63;5093285;28;20275;-73
2021/05/07 05:36:28;;;;;;;14.20;10.20;;;;;;;7.17;85.21;98900.00;5093451;28;20267;-72
2021/05/07 05:38:55;;;;;;;11.27;10.02;;;;;;;7.14;86.02;98905.50;5093264;28;20216;-74
2021/05/07 05:41:21;;;;;;;10.88;9.27;;;;;;;7.31;86.36;98910.81;5092947;28;20228;-73
2021/05/07 05:43:48;;;;;;;14.90;9.93;;;;;;;7.28;86.07;98915.44;5093289;28;20267;-72
2021/05/07 05:46:15;;;;;;;11.32;9.45;;;;;;;7.35;85.82;98924.91;5093022;28;20194;-71
2021/05/07 05:48:41;;;;;;;11.93;8.63;;;;;;;7.29;85.12;98926.09;5093162;28;20204;-71
2021/05/07 05:51:07;;;;;;;11.45;9.52;;;;;;;7.11;85.67;98935.13;5092983;28;20245;-71
2021/05/07 05:53:33;;;;;;;16.40;9.63;;;;;;;7.09;85.61;98937.88;5092839;28;20678;-72
2021/05/07 05:56:00;;;;;;;13.20;9.88;;;;;;;7.03;85.26;98942.72;5093251;28;20609;-72
2021/05/07 05:58:30;;;;;;;11.30;9.70;;;;;;;7.07;85.75;98945.13;5092371;28;20188;-72
2021/05/07 06:00:56;;;;;;;15.15;10.15;;;;;;;7.35;85.22;98943.66;5092314;28;20184;-73
2021/05/07 06:03:22;;;;;;;13.45;10.13;;;;;;;7.50;84.64;98947.25;5092859;28;20196;-72
2021/05/07 06:05:48;;;;;;;13.48;10.05;;;;;;;7.69;83.34;98947.97;5093014;28;20646;-74
2021/05/07 06:08:15;;;;;;;12.20;10.38;;;;;;;7.94;83.32;98957.28;5092039;28;20329;-73
2021/05/07 06:10:41;;;;;;;11.68;9.68;;;;;;;7.89;81.72;98959.34;5092169;28;20200;-72
2021/05/07 06:13:08;;;;;;;12.82;10.25;;;;;;;7.87;80.47;98964.81;5093205;28;20200;-72
2021/05/07 06:15:34;;;;;;;15.45;11.23;;;;;;;8.00;80.21;98958.75;5092476;28;20183;-73
2021/05/07 06:18:00;;;;;;;14.38;10.30;;;;;;;7.91;79.98;98957.44;5092767;28;20286;-73
2021/05/07 06:20:27;;;;;;;14.80;11.40;;;;;;;7.81;79.72;98966.97;5092791;28;20212;-72
2021/05/07 06:22:53;;;;;;;18.50;13.10;;;;;;;7.71;79.11;98966.63;5092272;28;20223;-74
2021/05/07 06:25:21;;;;;;;18.90;12.23;;;;;;;7.63;79.96;98967.06;5092119;28;20312;-72
2021/05/07 06:27:47;;;;;;;14.80;11.05;;;;;;;7.82;79.12;98969.56;5092798;28;20621;-73
2021/05/07 06:30:15;;;;;;;12.52;10.60;;;;;;;7.59;78.59;98972.69;5092185;28;20299;-73
2021/05/07 06:32:42;;;;;;;17.50;12.40;;;;;;;7.68;78.13;98983.75;5092370;28;20200;-75
2021/05/07 06:35:10;;;;;;;13.48;10.18;;;;;;;7.81;77.18;98981.25;5092420;28;20200;-72
2021/05/07 06:37:36;;;;;;;13.95;11.23;;;;;;;7.75;77.24;98988.75;5092143;28;20254;-74
2021/05/07 06:40:05;;;;;;;15.20;10.70;;;;;;;7.63;77.38;98979.59;5092147;28;20634;-72
2021/05/07 06:42:34;;;;;;;13.48;10.57;;;;;;;7.76;77.03;98993.19;5092535;28;20184;-72
2021/05/07 06:45:00;;;;;;;12.43;9.70;;;;;;;7.85;76.42;98998.88;5091402;28;20250;-72
2021/05/07 06:47:27;;;;;;;13.50;10.68;;;;;;;8.14;75.50;98997.22;5091958;28;20228;-74
2021/05/07 06:49:53;;;;;;;13.13;10.10;;;;;;;8.02;76.06;98997.91;5091296;28;20184;-73
2021/05/07 06:52:20;;;;;;;16.55;11.70;;;;;;;8.15;74.84;99004.31;5092285;28;20196;-73
2021/05/07 06:54:46;;;;;;;13.13;10.00;;;;;;;7.99;75.08;99018.69;5092131;28;20618;-74
2021/05/07 06:57:12;;;;;;;14.98;11.88;;;;;;;7.65;76.53;99018.75;5091572;28;20198;-72
2021/05/07 06:59:38;;;;;;;17.02;11.27;;;;;;;7.84;75.41;99029.31;5092336;28;20184;-73
2021/05/07 07:02:05;;;;;;;16.42;12.43;;;;;;;7.96;74.99;99029.56;5092147;28;20188;-73
2021/05/07 07:04:32;;;;;;;14.98;11.18;;;;;;;7.93;76.06;99020.75;5091649;28;20681;-73
2021/05/07 07:06:58;;;;;;;16.27;12.68;;;;;;;8.07;75.12;99027.13;5092403;28;20225;-75
2021/05/07 07:09:24;;;;;;;14.13;10.95;;;;;;;8.00;72.91;99036.50;5091953;28;20192;-72
2021/05/07 07:11:52;;;;;;;16.40;11.75;;;;;;;7.87;73.24;99039.00;5091720;28;20224;-73
2021/05/07 07:14:18;;;;;;;14.98;11.30;;;;;;;7.94;73.26;99032.34;5091779;28;20241;-71
2021/05/07 07:16:44;;;;;;;12.90;10.90;;;;;;;8.13;72.10;99041.06;5092001;28;20242;-74
2021/05/07 07:19:10;;;;;;;15.23;10.80;;;;;;;8.23;70.79;99043.22;5091661;28;20220;-73
2021/05/07 07:21:37;;;;;;;16.05;11.88;;;;;;;8.32;69.60;99045.38;5092240;28;20215;-70
2021/05/07 07:24:04;;;;;;;12.25;10.57;;;;;;;8.44;68.95;99046.53;5091592;28;20216;-71
2021/05/07 07:26:30;;;;;;;11.18;9.98;;;;;;;8.52;68.17;99053.19;5091185;28;20211;-73
2021/05/07 07:28:56;;;;;;;11.38;9.13;;;;;;;8.57;67.18;99055.59;5091638;28;20649;-72
2021/05/07 07:31:23;;;;;;;11.57;10.05;;;;;;;8.40;67.83;99056.56;5091485;28;20275;-72
2021/05/07 07:33:49;;;;;;;11.82;10.10;;;;;;;8.23;65.04;99072.72;5091601;28;20273;-72
2021/05/07 07:36:16;;;;;;;14.27;9.75;;;;;;;8.22;66.43;99062.97;5091647;28;20176;-72
2021/05/07 07:38:43;;;;;;;12.10;9.65;;;;;;;8.61;65.46;99054.44;5091413;28;20199;-73
2021/05/07 07:41:09;;;;;;;9.75;7.78;;;;;;;8.90;60.48;99060.78;5091583;28;20237;-71
2021/05/07 07:43:35;;;;;;;11.38;9.02;;;;;;;8.86;60.98;99071.78;5091579;28;20196;-72
2021/05/07 07:46:02;;;;;;;10.98;8.75;;;;;;;8.75;61.69;99072.41;5092091;28;20238;-71
2021/05/07 07:48:28;;;;;;;13.10;10.02;;;;;;;8.90;60.78;99066.13;5091079;28;20303;-72
2021/05/07 07:50:54;;;;;;;11.65;9.10;;;;;;;9.03;61.68;99074.34;5092220;28;20185;-72
2021/05/07 07:53:20;;;;;;;10.73;9.07;;;;;;;9.18;62.21;99083.31;5091765;28;20287;-72
2021/05/07 07:55:50;;;;;;;11.68;10.27;;;;;;;9.64;60.48;99079.59;5091463;28;20271;-73
2021/05/07 07:58:18;;;;;;;12.98;10.18;;;;;;;9.56;59.94;99080.06;5090528;28;20192;-71
2021/05/07 08:00:44;;;;;;;10.38;9.38;;;;;;;9.67;59.94;99087.47;5091933;28;20196;-71
2021/05/07 08:03:10;;;;;;;16.15;9.77;;;;;;;9.50;60.65;99091.22;5095153;28;20692;-73
2021/05/07 08:05:37;;;;;;;12.75;9.45;;;;;;;9.91;59.30;99093.13;5095081;28;21056;-72
2021/05/07 08:08:04;;;;;;;11.10;9.45;;;;;;;9.67;59.20;99092.84;5094779;28;20196;-74
2021/05/07 08:10:30;;;;;;;9.65;7.68;;;;;;;9.73;56.46;99096.00;5095073;28;20865;-74
2021/05/07 08:12:57;;;;;;;10.90;9.00;;;;;;;9.49;57.79;99106.44;5094360;28;20200;-72
2021/05/07 08:15:24;;;;;;;12.52;9.10;;;;;;;9.68;57.93;99105.31;5094812;28;20711;-73
2021/05/07 08:17:50;;;;;;;9.93;8.80;;;;;;;9.81;58.08;99109.84;5094717;28;20279;-73
2021/05/07 08:20:17;;;;;;;10.43;9.00;;;;;;;9.91;57.19;99115.50;5094365;28;20275;-74
2021/05/07 08:22:44;;;;;;;8.60;7.60;;;;;;;9.79;55.61;99105.50;5094857;28;20267;-73
2021/05/07 08:25:11;;;;;;;10.68;9.05;;;;;;;10.10;56.19;99117.88;5094613;28;20204;-74
2021/05/07 08:27:38;;;;;;;10.85;8.68;;;;;;;10.28;55.30;99120.34;5094222;28;20287;-75
2021/05/07 08:30:07;;;;;;;10.63;8.35;;;;;;;10.62;53.51;99114.53;5094643;28;20186;-72
2021/05/07 08:32:34;;;;;;;10.40;8.75;;;;;;;10.91;54.43;99124.34;5094921;28;21010;-72
2021/05/07 08:35:00;;;;;;;11.80;8.52;;;;;;;10.60;53.71;99120.97;5094713;28;20198;-73
2021/05/07 08:37:26;;;;;;;7.75;7.05;;;;;;;10.72;50.55;99124.69;5094816;28;20187;-72
2021/05/07 08:39:53;;;;;;;11.60;7.25;;;;;;;10.75;50.08;99129.88;5094145;28;20205;-74
2021/05/07 08:42:20;;;;;;;10.10;7.18;;;;;;;10.79;50.60;99134.09;5094237;28;20205;-72
2021/05/07 08:44:47;;;;;;;9.88;7.30;;;;;;;10.63;51.66;99137.81;5094099;28;20256;-72
2021/05/07 08:47:18;;;;;;;9.32;7.50;;;;;;;10.88;49.16;99149.66;5093558;28;20200;-72
2021/05/07 08:49:46;;;;;;;8.48;7.45;;;;;;;10.86;49.27;99140.81;5094305;28;20609;-73
2021/05/07 08:52:13;;;;;;;9.18;8.27;;;;;;;11.19;48.49;99142.19;5094552;28;20269;-72
2021/05/07 08:54:39;;;;;;;7.90;6.43;;;;;;;10.99;47.15;99143.53;5094249;28;20204;-72
2021/05/07 08:57:05;;;;;;;10.23;7.15;;;;;;;11.50;46.11;99143.63;5094612;28;20629;-71
2021/05/07 08:59:33;;;;;;;8.65;7.45;;;;;;;11.84;46.20;99150.22;5094511;28;20576;-73
2021/05/07 09:01:59;;;;;;;7.50;6.70;;;;;;;11.91;46.56;99155.22;5094255;28;20187;-72
2021/05/07 09:04:26;;;;;;;10.05;7.13;;;;;;;11.27;48.99;99148.78;5093862;28;20227;-72
2021/05/07 09:06:54;;;;;;;9.32;7.53;;;;;;;11.02;49.25;99157.66;5094369;28;20245;-73
2021/05/07 09:09:25;;;;;;;9.35;7.35;;;;;;;10.87;49.26;99155.97;5093014;28;20201;-74
2021/05/07 09:11:52;;;;;;;10.20;7.03;;;;;;;11.05;46.99;99154.75;5093455;28;20195;-72
2021/05/07 09:14:19;;;;;;;8.10;6.72;;;;;;;11.60;44.38;99146.56;5093698;28;20186;-71
2021/05/07 09:16:53;;;;;;;9.70;5.93;;;;;;;11.69;43.39;99145.94;5093874;28;20554;-72
2021/05/07 09:19:21;;;;;;;5.80;4.45;;;;;;;11.45;43.64;99149.34;5093276;28;20286;-74
2021/05/07 09:21:48;;;;;;;6.88;5.82;;;;;;;11.10;46.11;99154.44;5093829;28;20605;-71
2021/05/07 09:24:14;;;;;;;7.43;6.32;;;;;;;10.98;47.66;99153.44;5093434;28;20195;-74
2021/05/07 09:26:45;;;;;;;6.18;4.80;;;;;;;11.20;47.77;99154.69;5093714;28;20234;-71
2021/05/07 09:29:21;;;;;;;6.13;5.20;;;;;;;11.51;46.85;99164.25;5093754;28;20273;-73
2021/05/07 09:31:49;;;;;;;7.03;5.55;;;;;;;11.26;47.64;99155.16;5093453;28;20302;-72
2021/05/07 09:34:16;;;;;;;7.55;5.00;;;;;;;11.46;48.08;99151.09;5093892;28;20645;-72
2021/05/07 09:36:42;;;;;;;9.05;6.03;;;;;;;11.73;46.98;99168.16;5093385;28;20284;-72
2021/05/07 09:39:14;;;;;;;6.80;4.60;;;;;;;11.80;45.80;99173.03;5093710;28;20196;-71
2021/05/07 09:41:42;;;;;;;4.07;3.67;;;;;;;11.44;45.73;99171.00;5093122;28;20311;-73
2021/05/07 09:44:17;;;;;;;5.90;3.55;;;;;;;11.34;46.81;99196.88;5093429;28;20220;-73
2021/05/07 09:46:43;;;;;;;7.15;4.90;;;;;;;11.44;48.17;99198.84;5093339;28;20190;-73
2021/05/07 09:49:10;;;;;;;9.95;5.28;;;;;;;11.59;48.66;99191.53;5093731;28;20208;-71
2021/05/07 09:51:40;;;;;;;6.57;5.22;;;;;;;11.74;49.10;99232.78;5093183;28;20192;-71
2021/05/07 09:54:07;;;;;;;6.60;5.80;;;;;;;11.10;51.02;99220.94;5093512;28;20188;-74
2021/05/07 09:56:35;;;;;;;6.13;4.75;;;;;;;11.48;50.04;99223.75;5093676;28;20911;-73
2021/05/07 09:59:01;;;;;;;8.52;5.65;;;;;;;11.78;47.71;99222.63;5093453;28;20312;-73
2021/05/07 10:01:28;;;;;;;3.70;3.30;;;;;;;11.81;46.55;99227.81;5092815;28;20305;-71
2021/05/07 10:03:55;;;;;;;4.43;3.95;;;;;;;12.40;45.93;99222.78;5093546;28;20242;-71
2021/05/07 10:06:22;;;;;;;4.38;3.03;;;;;;;11.87;45.21;99238.16;5093107;28;20218;-73
2021/05/07 10:08:49;;;;;;;3.65;3.33;;;;;;;11.40;45.07;99226.13;5092759;28;20260;-71
2021/05/07 10:11:16;;;;;;;4.72;3.20;;;;;;;11.28;43.88;99241.28;5093363;28;20866;-73
2021/05/07 10:13:47;;;;;;;2.90;2.60;;;;;;;11.44;43.43;99231.22;5092985;28;20231;-72
2021/05/07 10:16:13;;;;;;;4.10;2.28;;;;;;;11.39;42.49;99241.41;5092923;28;20345;-71
2021/05/07 10:18:41;;;;;;;4.43;2.67;;;;;;;11.45;42.91;99249.09;5092787;28;20234;-74
2021/05/07 10:21:08;;;;;;;2.70;2.50;;;;;;;11.82;42.36;99230.41;5092561;28;20219;-71
2021/05/07 10:23:35;;;;;;;2.50;2.30;;;;;;;11.94;40.41;99238.66;5092134;28;20203;-72
2021/05/07 10:26:05;;;;;;;5.25;2.85;;;;;;;12.14;42.03;99239.94;5092702;28;20546;-72
2021/05/07 10:28:45;;;;;;;3.88;3.35;;;;;;;12.05;43.23;99250.44;5091649;28;20192;-72
2021/05/07 10:31:13;;;;;;;5.78;3.42;;;;;;;11.99;44.45;99268.88;5093026;28;20226;-74
2021/05/07 10:33:39;;;;;;;6.57;3.55;;;;;;;11.47;45.64;99276.81;5092535;28;20893;-74
2021/05/07 10:36:06;;;;;;;5.05;3.50;;;;;;;11.58;44.21;99272.56;5092847;28;20202;-75
2021/05/07 10:38:32;;;;;;;4.18;3.00;;;;;;;11.47;44.14;99284.91;5092393;28;20273;-72
2021/05/07 10:41:07;;;;;;;4.90;3.83;;;;;;;11.68;43.94;99281.72;5091860;28;20254;-73
2021/05/07 10:43:38;;;;;;;6.82;3.45;;;;;;;12.17;42.43;99282.94;5092218;28;20253;-74
2021/05/07 10:46:05;;;;;;;5.10;4.55;;;;;;;11.75;43.66;99283.03;5092281;28;20212;-71
2021/05/07 10:48:31;;;;;;;4.53;4.00;;;;;;;11.78;44.03;99296.34;5091738;28;20222;-72
2021/05/07 10:51:02;;;;;;;5.38;4.22;;;;;;;11.15;44.79;99294.28;5090758;28;20196;-72
2021/05/07 10:53:35;;;;;;;6.13;4.70;;;;;;;11.32;44.84;99301.22;5091752;28;20184;-72
2021/05/07 10:56:01;;;;;;;4.57;4.18;;;;;;;11.86;44.54;99298.50;5091967;28;20198;-74
2021/05/07 10:58:46;;;;;;;6.25;4.32;;;;;;;12.27;43.17;99295.66;5092368;28;20257;-73
2021/05/07 11:01:22;;;;;;;4.70;4.30;;;;;;;11.95;41.83;99302.44;5091614;28;20275;-71
2021/05/07 11:04:00;;;;;;;5.47;4.57;;;;;;;12.55;41.79;99315.34;5092037;28;20187;-73
2021/05/07 11:06:31;;;;;;;5.97;4.35;;;;;;;12.40;41.94;99311.88;5091593;28;20212;-74
2021/05/07 11:08:57;;;;;;;6.07;4.70;;;;;;;11.72;44.18;99309.38;5091883;28;20287;-72
2021/05/07 11:11:24;;;;;;;7.70;5.38;;;;;;;12.07;44.42;99313.28;5092056;28;20188;-71
2021/05/07 11:13:50;;;;;;;7.97;5.57;;;;;;;12.11;44.23;99322.00;5092486;28;20263;-71
2021/05/07 11:16:16;;;;;;;7.75;5.18;;;;;;;12.02;45.18;99333.44;5091567;28;20196;-73
2021/05/07 11:18:47;;;;;;;6.13;5.47;;;;;;;11.86;44.98;99339.81;5091829;28;20188;-71
2021/05/07 11:21:15;;;;;;;6.88;5.78;;;;;;;11.64;50.11;99348.47;5091889;28;20273;-73
2021/05/07 11:23:41;;;;;;;8.65;5.45;;;;;;;11.03;50.92;99349.78;5091199;28;20202;-72
2021/05/07 11:26:08;;;;;;;6.72;5.43;;;;;;;11.25;51.17;99350.13;5091615;28;20219;-71
2021/05/07 11:28:42;;;;;;;7.80;5.18;;;;;;;11.27;47.24;99336.56;5092095;28;20263;-73
2021/05/07 11:31:09;;;;;;;4.82;4.43;;;;;;;11.40;46.83;99333.97;5091767;28;20545;-73
2021/05/07 11:33:36;;;;;;;6.38;4.80;;;;;;;11.57;45.49;99327.44;5091989;28;20656;-73
2021/05/07 11:36:07;;;;;;;8.07;5.00;;;;;;;12.08;45.05;99333.00;5094307;28;20282;-75